createdAt,value
2019-01-28T00:00:42.562Z,2.58
2019-01-28T00:03:11.711Z,1.87
2019-01-28T00:05:40.718Z,1.98
2019-01-28T00:08:15.884Z,2.10
2019-01-28T00:10:49.905Z,2.00
2019-01-28T00:13:26.674Z,2.30
2019-01-28T00:15:57.756Z,2.12
2019-01-28T00:18:27.800Z,2.50
2019-01-28T00:20:56.735Z,1.98
2019-01-28T00:23:26.643Z,2.35
2019-01-28T00:25:55.705Z,2.15
2019-01-28T00:28:24.635Z,1.70
2019-01-28T00:30:56.874Z,2.40
2019-01-28T00:33:25.793Z,1.90
2019-01-28T00:35:54.758Z,1.32
2019-01-28T00:38:24.689Z,1.55
2019-01-28T00:40:53.668Z,1.50
2019-01-28T00:43:22.752Z,1.45
2019-01-28T00:45:51.753Z,1.50
2019-01-28T00:48:20.690Z,1.52
2019-01-28T00:50:50.641Z,1.90
2019-01-28T00:53:19.586Z,1.98
2019-01-28T00:55:48.554Z,1.50
2019-01-28T00:58:17.622Z,1.60
2019-01-28T01:00:46.631Z,2.10
2019-01-28T01:03:16.655Z,1.75
2019-01-28T01:05:46.721Z,1.90
2019-01-28T01:08:16.770Z,2.02
2019-01-28T01:10:52.641Z,1.90
2019-01-28T01:13:22.098Z,2.45
2019-01-28T01:15:57.994Z,1.62
2019-01-28T01:18:27.012Z,1.90
2019-01-28T01:20:57.929Z,2.50
2019-01-28T01:23:27.025Z,2.20
2019-01-28T01:25:55.925Z,1.90
2019-01-28T01:28:24.832Z,1.95
2019-01-28T01:30:54.813Z,2.10
2019-01-28T01:33:23.742Z,1.80
2019-01-28T01:35:52.689Z,1.90
2019-01-28T01:38:22.640Z,2.00
2019-01-28T01:40:57.700Z,2.98
2019-01-28T01:43:26.621Z,1.98
2019-01-28T01:45:55.483Z,2.27
2019-01-28T01:48:24.441Z,2.50
2019-01-28T01:50:53.401Z,2.00
2019-01-28T01:53:22.302Z,2.08
2019-01-28T01:55:52.245Z,2.10
2019-01-28T01:58:21.214Z,1.90
2019-01-28T02:00:55.324Z,1.90
2019-01-28T02:03:26.271Z,2.27
2019-01-28T02:05:55.278Z,1.60
2019-01-28T02:08:39.492Z,2.10
2019-01-28T02:11:08.494Z,2.00
2019-01-28T02:13:37.414Z,3.05
2019-01-28T02:16:09.584Z,1.60
2019-01-28T02:18:45.808Z,1.72
2019-01-28T02:21:15.728Z,2.20
2019-01-28T02:23:44.708Z,1.80
2019-01-28T02:26:13.785Z,1.65
2019-01-28T02:28:48.569Z,1.50
2019-01-28T02:31:17.623Z,1.40
2019-01-28T02:33:48.572Z,2.98
2019-01-28T02:36:17.584Z,1.20
2019-01-28T02:38:46.522Z,1.32
2019-01-28T02:41:18.690Z,1.47
2019-01-28T02:44:07.227Z,1.40
2019-01-28T02:46:39.244Z,1.20
2019-01-28T02:49:10.123Z,0.90
2019-01-28T02:51:49.185Z,1.10
2019-01-28T02:54:18.619Z,1.45
2019-01-28T02:56:47.711Z,1.20
2019-01-28T02:59:22.774Z,1.32
2019-01-28T03:01:55.805Z,1.12
2019-01-28T03:04:24.728Z,1.37
2019-01-28T03:06:53.658Z,1.20
2019-01-28T03:09:22.534Z,1.47
2019-01-28T03:11:51.589Z,0.98
2019-01-28T03:14:20.486Z,1.07
2019-01-28T03:16:49.458Z,1.25
2019-01-28T03:19:18.379Z,1.10
2019-01-28T03:21:47.455Z,1.10
2019-01-28T03:24:16.306Z,1.30
2019-01-28T03:26:45.260Z,1.50
2019-01-28T03:29:14.315Z,1.12
2019-01-28T03:31:43.169Z,1.20
2019-01-28T03:34:12.060Z,1.20
2019-01-28T03:36:41.090Z,1.20
2019-01-28T03:39:10.130Z,1.30
2019-01-28T03:41:47.958Z,1.10
2019-01-28T03:44:16.922Z,1.50
2019-01-28T03:46:54.981Z,1.10
2019-01-28T03:49:30.065Z,1.10
2019-01-28T03:52:00.165Z,1.20
2019-01-28T03:54:29.253Z,1.00
2019-01-28T03:57:04.038Z,1.10
2019-01-28T03:59:33.053Z,1.00
2019-01-28T04:02:04.085Z,1.27
2019-01-28T04:04:34.115Z,1.20
2019-01-28T04:07:07.157Z,1.00
2019-01-28T04:09:36.121Z,1.00
2019-01-28T04:12:05.906Z,0.90
2019-01-28T04:14:41.240Z,1.00
2019-01-28T04:17:10.191Z,1.20
2019-01-28T04:19:39.555Z,1.17
2019-01-28T04:22:08.524Z,1.12
2019-01-28T04:24:38.476Z,1.20
2019-01-28T04:27:07.348Z,1.20
2019-01-28T04:29:36.169Z,1.20
2019-01-28T04:32:05.998Z,1.10
2019-01-28T04:34:36.909Z,1.12
2019-01-28T04:37:06.032Z,1.30
2019-01-28T04:39:34.920Z,1.00
2019-01-28T04:42:03.805Z,0.98
2019-01-28T04:44:32.967Z,0.80
2019-01-28T04:47:01.874Z,0.95
2019-01-28T04:49:30.801Z,0.85
2019-01-28T04:51:59.619Z,0.93
2019-01-28T04:54:28.409Z,1.00
2019-01-28T04:56:57.284Z,2.00
2019-01-28T04:59:26.096Z,1.60
2019-01-28T05:01:54.975Z,1.40
2019-01-28T05:04:23.798Z,1.82
2019-01-28T05:06:52.608Z,4.65
2019-01-28T05:09:21.417Z,1.45
2019-01-28T05:11:51.045Z,1.07
2019-01-28T05:14:42.086Z,1.17
2019-01-28T05:17:11.034Z,0.93
2019-01-28T05:19:39.929Z,1.00
2019-01-28T05:22:08.836Z,0.95
2019-01-28T05:24:38.709Z,0.93
2019-01-28T05:27:07.666Z,0.90
2019-01-28T05:29:36.723Z,0.90
2019-01-28T05:32:05.893Z,1.00
2019-01-28T05:34:34.713Z,0.80
2019-01-28T05:37:04.472Z,0.80
2019-01-28T05:39:33.440Z,0.90
2019-01-28T05:42:02.335Z,1.37
2019-01-28T05:44:31.245Z,1.20
2019-01-28T05:47:00.147Z,1.15
2019-01-28T05:49:47.931Z,0.70
2019-01-28T05:52:17.013Z,0.80
2019-01-28T05:55:07.796Z,1.10
2019-01-28T05:57:36.689Z,0.90
2019-01-28T06:00:08.217Z,1.17
2019-01-28T06:02:37.189Z,1.02
2019-01-28T06:05:06.904Z,0.95
2019-01-28T06:08:05.494Z,0.80
2019-01-28T06:10:34.409Z,0.90
2019-01-28T06:13:03.268Z,0.80
2019-01-28T06:15:32.484Z,0.80
2019-01-28T06:18:01.442Z,0.70
2019-01-28T06:20:30.577Z,0.90
2019-01-28T06:22:59.511Z,0.90
2019-01-28T06:25:28.468Z,1.00
2019-01-28T06:27:57.392Z,0.88
2019-01-28T06:30:28.609Z,1.02
2019-01-28T06:32:57.552Z,1.10
2019-01-28T06:35:26.688Z,1.75
2019-01-28T06:37:55.977Z,1.10
2019-01-28T06:40:27.529Z,0.82
2019-01-28T06:42:56.611Z,1.10
2019-01-28T06:45:25.570Z,1.15
2019-01-28T06:47:54.685Z,0.90
2019-01-28T06:50:23.747Z,0.98
2019-01-28T06:52:52.717Z,0.90
2019-01-28T06:55:21.710Z,0.98
2019-01-28T06:57:50.656Z,0.80
2019-01-28T07:00:25.280Z,1.00
2019-01-28T07:02:54.932Z,1.00
2019-01-28T07:05:23.852Z,1.10
2019-01-28T07:07:52.916Z,1.10
2019-01-28T07:10:22.965Z,1.12
2019-01-28T07:12:51.907Z,1.40
2019-01-28T07:15:22.118Z,1.07
2019-01-28T07:17:55.058Z,1.12
2019-01-28T07:20:23.608Z,1.22
2019-01-28T07:22:52.588Z,1.00
2019-01-28T07:25:22.532Z,1.45
2019-01-28T07:27:51.511Z,1.10
2019-01-28T07:30:24.284Z,1.10
2019-01-28T07:32:53.169Z,1.42
2019-01-28T07:35:22.113Z,1.60
2019-01-28T07:38:02.823Z,1.45
2019-01-28T07:40:37.704Z,1.22
2019-01-28T07:43:06.679Z,1.40
2019-01-28T07:45:44.617Z,1.47
2019-01-28T07:48:08.255Z,1.35
2019-01-28T07:50:37.091Z,1.05
2019-01-28T07:53:06.124Z,1.35
2019-01-28T07:55:35.003Z,1.10
2019-01-28T07:58:03.908Z,2.02
2019-01-28T08:00:32.868Z,1.70
2019-01-28T08:03:01.837Z,1.30
2019-01-28T08:05:30.810Z,1.17
2019-01-28T08:07:59.833Z,1.35
2019-01-28T08:10:28.744Z,1.22
2019-01-28T08:12:57.933Z,1.35
2019-01-28T08:15:27.930Z,1.10
2019-01-28T08:17:58.925Z,1.25
2019-01-28T08:20:27.906Z,1.40
2019-01-28T08:22:56.888Z,1.20
2019-01-28T08:25:25.767Z,1.30
2019-01-28T08:27:54.757Z,1.20
2019-01-28T08:30:26.423Z,1.98
2019-01-28T08:32:55.389Z,1.10
2019-01-28T08:35:24.481Z,0.90
2019-01-28T08:37:53.681Z,1.20
2019-01-28T08:40:23.984Z,1.00
2019-01-28T08:42:52.941Z,1.90
2019-01-28T08:45:21.928Z,1.60
2019-01-28T08:47:50.816Z,1.05
2019-01-28T08:50:21.141Z,1.02
2019-01-28T08:52:50.101Z,1.12
2019-01-28T08:55:20.757Z,0.95
2019-01-28T08:57:49.878Z,1.00
2019-01-28T09:00:27.556Z,2.10
2019-01-28T09:02:56.433Z,1.57
2019-01-28T09:05:25.396Z,1.30
2019-01-28T09:07:54.460Z,1.40
2019-01-28T09:10:25.344Z,1.50
2019-01-28T09:12:54.301Z,1.10
2019-01-28T09:15:23.285Z,1.22
2019-01-28T09:17:52.249Z,1.37
2019-01-28T09:20:22.348Z,2.10
2019-01-28T09:22:51.324Z,1.45
2019-01-28T09:25:20.398Z,1.30
2019-01-28T09:27:49.469Z,1.12
2019-01-28T09:30:25.500Z,1.10
2019-01-28T09:32:56.666Z,1.00
2019-01-28T09:35:26.790Z,1.20
2019-01-28T09:37:55.764Z,1.45
2019-01-28T09:40:26.081Z,1.15
2019-01-28T09:42:55.034Z,1.22
2019-01-28T09:45:29.200Z,1.40
2019-01-28T09:48:05.354Z,1.35
2019-01-28T09:50:34.306Z,1.30
2019-01-28T09:53:03.573Z,1.47
2019-01-28T09:55:32.524Z,1.00
2019-01-28T09:58:01.595Z,1.20
2019-01-28T10:00:33.367Z,1.60
2019-01-28T10:03:03.634Z,1.50
2019-01-28T10:05:32.584Z,1.30
2019-01-28T10:08:01.496Z,1.62
2019-01-28T10:10:30.456Z,1.27
2019-01-28T10:12:59.541Z,1.22
2019-01-28T10:15:29.203Z,1.50
2019-01-28T10:17:58.245Z,1.90
2019-01-28T10:20:30.031Z,1.70
2019-01-28T10:22:59.003Z,1.10
2019-01-28T10:25:27.973Z,1.98
2019-01-28T10:27:56.941Z,1.95
2019-01-28T10:30:36.664Z,1.52
2019-01-28T10:33:06.808Z,1.70
2019-01-28T10:35:37.072Z,1.30
2019-01-28T10:38:06.751Z,1.65
2019-01-28T10:40:37.653Z,1.45
2019-01-28T10:43:07.931Z,1.20
2019-01-28T10:45:36.949Z,1.70
2019-01-28T10:48:07.085Z,1.70
2019-01-28T10:50:36.666Z,1.50
2019-01-28T10:53:05.845Z,1.40
2019-01-28T10:55:34.918Z,2.00
2019-01-28T10:58:04.309Z,1.80
2019-01-28T11:00:35.633Z,2.00
2019-01-28T11:03:05.830Z,1.52
2019-01-28T11:05:34.792Z,1.50
2019-01-28T11:08:04.148Z,1.52
2019-01-28T11:10:33.174Z,1.42
2019-01-28T11:13:02.107Z,1.30
2019-01-28T11:15:36.894Z,1.80
2019-01-28T11:18:17.633Z,1.40
2019-01-28T11:20:46.704Z,1.45
2019-01-28T11:23:15.628Z,1.55
2019-01-28T11:25:44.624Z,1.70
2019-01-28T11:28:13.697Z,2.30
2019-01-28T11:30:47.073Z,1.65
2019-01-28T11:33:16.038Z,1.72
2019-01-28T11:35:46.217Z,1.60
2019-01-28T11:38:16.624Z,2.15
2019-01-28T11:40:45.777Z,1.70
2019-01-28T11:43:18.104Z,1.90
2019-01-28T11:46:06.874Z,1.32
2019-01-28T11:48:36.030Z,1.42
2019-01-28T11:51:05.312Z,1.90
2019-01-28T11:53:46.361Z,1.85
2019-01-28T11:56:15.277Z,2.30
2019-01-28T11:58:44.357Z,1.75
2019-01-28T12:01:24.155Z,1.98
2019-01-28T12:03:53.118Z,1.98
2019-01-28T12:06:28.517Z,1.52
2019-01-28T12:08:57.493Z,2.27
2019-01-28T12:11:32.457Z,1.85
2019-01-28T12:14:01.461Z,1.47
2019-01-28T12:16:30.496Z,1.80
2019-01-28T12:19:01.332Z,2.40
2019-01-28T12:21:32.416Z,2.15
2019-01-28T12:24:10.531Z,1.87
2019-01-28T12:26:45.550Z,2.50
2019-01-28T12:29:24.577Z,1.80
2019-01-28T12:31:55.602Z,2.17
2019-01-28T12:34:26.785Z,2.27
2019-01-28T12:37:02.585Z,1.65
2019-01-28T12:39:36.550Z,1.70
2019-01-28T12:42:05.845Z,1.72
2019-01-28T12:44:40.973Z,1.60
2019-01-28T12:47:10.976Z,2.17
2019-01-28T12:49:40.957Z,2.05
2019-01-28T12:52:11.021Z,1.40
2019-01-28T12:54:40.067Z,2.08
2019-01-28T12:57:08.961Z,1.72
2019-01-28T12:59:37.921Z,1.75
2019-01-28T13:02:06.893Z,1.80
2019-01-28T13:04:42.407Z,1.80
2019-01-28T13:07:11.569Z,1.50
2019-01-28T13:09:40.519Z,1.62
2019-01-28T13:12:09.607Z,1.57
2019-01-28T13:14:43.767Z,1.80
2019-01-28T13:17:23.149Z,1.90
2019-01-28T13:19:53.669Z,2.02
2019-01-28T13:22:47.092Z,2.20
2019-01-28T13:25:18.326Z,1.95
2019-01-28T13:27:54.296Z,1.92
2019-01-28T13:30:25.484Z,1.75
2019-01-28T13:32:57.328Z,1.60
2019-01-28T13:35:36.587Z,1.85
2019-01-28T13:38:05.572Z,2.10
2019-01-28T13:40:40.449Z,1.70
2019-01-28T13:43:15.334Z,1.60
2019-01-28T13:45:45.269Z,1.50
2019-01-28T13:48:15.093Z,1.80
2019-01-28T13:50:50.192Z,1.65
2019-01-28T13:53:19.197Z,1.80
2019-01-28T13:55:56.209Z,1.60
2019-01-28T13:58:25.183Z,1.30
2019-01-28T14:01:07.596Z,1.40
2019-01-28T14:03:36.673Z,1.52
2019-01-28T14:06:16.674Z,1.60
2019-01-28T14:08:54.713Z,1.30
2019-01-28T14:11:24.657Z,1.30
2019-01-28T14:13:53.708Z,1.30
2019-01-28T14:16:24.719Z,1.30
2019-01-28T14:19:05.770Z,1.40
2019-01-28T14:21:34.785Z,1.35
2019-01-28T14:24:18.279Z,1.20
2019-01-28T14:26:56.629Z,1.62
2019-01-28T14:29:25.676Z,1.35
2019-01-28T14:32:00.563Z,1.30
2019-01-28T14:34:31.841Z,1.30
2019-01-28T14:37:00.842Z,1.22
2019-01-28T14:39:29.768Z,1.60
2019-01-28T14:41:58.728Z,1.62
2019-01-28T14:44:28.680Z,1.30
2019-01-28T14:46:57.653Z,1.50
2019-01-28T14:49:32.397Z,1.32
2019-01-28T14:52:10.666Z,0.93
2019-01-28T14:54:42.853Z,1.55
2019-01-28T14:57:11.801Z,1.20
2019-01-28T14:59:42.701Z,1.40
2019-01-28T15:02:11.781Z,1.02
2019-01-28T15:04:42.745Z,1.02
2019-01-28T15:07:11.794Z,1.40
2019-01-28T15:09:40.689Z,1.25
2019-01-28T15:12:09.813Z,1.50
2019-01-28T15:14:38.701Z,1.20
2019-01-28T15:17:07.600Z,1.10
2019-01-28T15:19:36.556Z,1.17
2019-01-28T15:22:05.517Z,1.20
2019-01-28T15:24:34.419Z,1.40
2019-01-28T15:27:03.381Z,1.20
2019-01-28T15:29:32.290Z,1.25
2019-01-28T15:32:02.210Z,1.12
2019-01-28T15:34:40.226Z,1.02
2019-01-28T15:37:09.181Z,1.30
2019-01-28T15:39:47.168Z,1.77
2019-01-28T15:42:17.069Z,1.20
2019-01-28T15:44:53.854Z,1.50
2019-01-28T15:47:22.858Z,1.57
2019-01-28T15:49:51.895Z,1.20
2019-01-28T15:52:20.917Z,1.60
2019-01-28T15:54:49.816Z,1.30
2019-01-28T15:57:25.661Z,1.50
2019-01-28T16:00:05.061Z,1.60
2019-01-28T16:02:52.418Z,1.57
2019-01-28T16:05:24.591Z,1.47
2019-01-28T16:07:53.559Z,1.50
2019-01-28T16:10:22.464Z,1.75
2019-01-28T16:12:51.377Z,1.60
2019-01-28T16:15:23.372Z,1.12
2019-01-28T16:17:52.264Z,1.40
2019-01-28T16:20:21.225Z,1.50
2019-01-28T16:22:50.293Z,1.50
2019-01-28T16:25:19.277Z,1.10
2019-01-28T16:27:48.260Z,1.27
2019-01-28T16:30:19.621Z,1.20
2019-01-28T16:32:48.517Z,1.40
2019-01-28T16:35:18.127Z,1.27
2019-01-28T16:37:47.529Z,1.35
2019-01-28T16:40:23.733Z,2.00
2019-01-28T16:42:52.880Z,1.20
2019-01-28T16:45:21.976Z,1.60
2019-01-28T16:47:50.949Z,1.22
2019-01-28T16:50:27.173Z,1.12
2019-01-28T16:52:53.384Z,1.55
2019-01-28T16:55:22.396Z,1.50
2019-01-28T16:57:52.845Z,1.40
2019-01-28T17:00:31.383Z,1.60
2019-01-28T17:03:01.441Z,1.00
2019-01-28T17:05:42.407Z,2.00
2019-01-28T17:08:11.510Z,1.20
2019-01-28T17:10:53.925Z,1.50
2019-01-28T17:13:25.578Z,1.80
2019-01-28T17:15:54.911Z,1.70
2019-01-28T17:18:30.897Z,1.80
2019-01-28T17:21:01.480Z,1.67
2019-01-28T17:23:33.578Z,1.90
2019-01-28T17:26:09.992Z,1.65
2019-01-28T17:28:39.037Z,1.47
2019-01-28T17:31:14.796Z,1.80
2019-01-28T17:33:43.947Z,2.05
2019-01-28T17:36:13.611Z,1.82
2019-01-28T17:38:42.658Z,2.35
2019-01-28T17:41:15.875Z,2.08
2019-01-28T17:43:59.981Z,2.00
2019-01-28T17:46:30.868Z,2.30
2019-01-28T17:49:01.653Z,2.90
2019-01-28T17:51:32.220Z,2.33
2019-01-28T17:54:10.756Z,2.45
2019-01-28T17:56:40.455Z,2.70
2019-01-28T17:59:09.856Z,2.60
2019-01-28T18:01:38.908Z,2.35
2019-01-28T18:04:08.186Z,2.33
2019-01-28T18:06:40.659Z,2.55
2019-01-28T18:09:21.630Z,2.55
2019-01-28T18:11:51.210Z,2.55
2019-01-28T18:14:41.583Z,2.67
2019-01-28T18:17:16.134Z,2.77
2019-01-28T18:19:52.377Z,2.87
2019-01-28T18:22:23.517Z,3.27
2019-01-28T18:24:58.583Z,3.08
2019-01-28T18:27:30.879Z,2.92
2019-01-28T18:30:00.405Z,3.45
2019-01-28T18:32:30.191Z,3.83
2019-01-28T18:35:09.449Z,3.67
2019-01-28T18:37:39.138Z,4.40
2019-01-28T18:40:09.797Z,4.05
2019-01-28T18:42:41.767Z,4.20
2019-01-28T18:45:24.288Z,3.85
2019-01-28T18:47:56.794Z,3.72
2019-01-28T18:50:30.590Z,4.60
2019-01-28T18:52:59.855Z,4.17
2019-01-28T18:55:29.551Z,5.28
2019-01-28T18:58:01.569Z,4.35
2019-01-28T19:00:31.169Z,4.08
2019-01-28T19:03:01.957Z,4.60
2019-01-28T19:05:46.751Z,4.87
2019-01-28T19:08:32.052Z,4.00
2019-01-28T19:11:18.570Z,5.60
2019-01-28T19:14:22.438Z,4.85
2019-01-28T19:17:27.768Z,4.92
2019-01-28T19:20:57.457Z,6.03
2019-01-28T19:23:42.632Z,4.85
2019-01-28T19:26:55.885Z,5.33
2019-01-28T19:29:37.163Z,4.67
2019-01-28T19:32:23.154Z,5.40
2019-01-28T19:34:54.867Z,4.92
2019-01-28T19:37:29.336Z,5.10
2019-01-28T19:40:18.118Z,4.40
2019-01-28T19:43:00.622Z,3.85
2019-01-28T19:45:39.213Z,4.97
2019-01-28T19:48:09.270Z,4.03
2019-01-28T19:50:38.294Z,4.47
2019-01-28T19:53:07.430Z,4.60
2019-01-28T19:55:36.535Z,4.40
2019-01-28T19:58:11.457Z,4.30
2019-01-28T20:00:40.498Z,4.37
2019-01-28T20:03:13.053Z,4.00
2019-01-28T20:05:42.969Z,4.03
2019-01-28T20:08:12.067Z,4.45
2019-01-28T20:10:41.028Z,4.78
2019-01-28T20:13:10.037Z,4.58
2019-01-28T20:15:39.145Z,4.58
2019-01-28T20:18:09.241Z,3.85
2019-01-28T20:20:38.355Z,4.08
2019-01-28T20:23:07.383Z,4.58
2019-01-28T20:25:36.330Z,4.20
2019-01-28T20:28:11.367Z,4.50
2019-01-28T20:30:40.327Z,4.35
2019-01-28T20:33:09.818Z,4.87
2019-01-28T20:35:38.742Z,4.70
2019-01-28T20:38:15.371Z,4.62
2019-01-28T20:40:44.118Z,3.80
2019-01-28T20:43:15.195Z,4.62
2019-01-28T20:45:45.410Z,5.92
2019-01-28T20:48:14.502Z,4.37
2019-01-28T20:50:43.509Z,4.58
2019-01-28T20:53:12.543Z,4.22
2019-01-28T20:55:41.623Z,4.20
2019-01-28T20:58:10.832Z,4.00
2019-01-28T21:00:39.811Z,4.58
2019-01-28T21:03:08.826Z,4.00
2019-01-28T21:05:39.069Z,4.03
2019-01-28T21:08:08.137Z,4.30
2019-01-28T21:10:37.156Z,3.60
2019-01-28T21:13:12.127Z,3.72
2019-01-28T21:15:41.167Z,3.60
2019-01-28T21:18:10.249Z,3.67
2019-01-28T21:20:48.971Z,3.60
2019-01-28T21:23:24.219Z,3.60
2019-01-28T21:25:53.612Z,4.20
2019-01-28T21:28:22.537Z,4.10
2019-01-28T21:30:51.531Z,3.55
2019-01-28T21:33:20.465Z,3.40
2019-01-28T21:36:07.499Z,3.62
2019-01-28T21:38:40.933Z,3.77
2019-01-28T21:41:09.838Z,3.87
2019-01-28T21:43:38.825Z,4.17
2019-01-28T21:46:07.833Z,3.70
2019-01-28T21:48:36.834Z,3.92
2019-01-28T21:51:05.923Z,3.90
2019-01-28T21:53:34.930Z,4.25
2019-01-28T21:56:10.405Z,3.70
2019-01-28T21:58:39.591Z,4.50
2019-01-28T22:01:08.880Z,4.05
2019-01-28T22:03:39.456Z,6.00
2019-01-28T22:06:11.793Z,4.15
2019-01-28T22:09:09.049Z,3.85
2019-01-28T22:11:39.124Z,4.95
2019-01-28T22:14:08.227Z,4.37
2019-01-28T22:16:37.166Z,4.75
2019-01-28T22:19:07.723Z,4.60
2019-01-28T22:21:38.823Z,4.35
2019-01-28T22:24:07.902Z,4.60
2019-01-28T22:26:36.895Z,4.72
2019-01-28T22:29:05.898Z,5.12
2019-01-28T22:31:34.889Z,4.12
2019-01-28T22:34:03.922Z,4.95
2019-01-28T22:36:32.848Z,4.55
2019-01-28T22:39:02.169Z,5.22
2019-01-28T22:41:31.737Z,5.10
2019-01-28T22:44:00.685Z,5.00
2019-01-28T22:46:29.541Z,4.28
2019-01-28T22:48:58.517Z,4.00
2019-01-28T22:51:27.566Z,4.47
2019-01-28T22:53:56.520Z,4.62
2019-01-28T22:56:25.547Z,5.00
2019-01-28T22:58:54.529Z,4.03
2019-01-28T23:01:27.585Z,4.00
2019-01-28T23:03:56.679Z,3.75
2019-01-28T23:06:25.685Z,3.85
2019-01-28T23:08:54.701Z,3.92
2019-01-28T23:11:23.705Z,4.03
2019-01-28T23:13:52.705Z,4.55
2019-01-28T23:16:21.697Z,4.12
2019-01-28T23:18:56.341Z,3.95
2019-01-28T23:21:25.329Z,4.30
2019-01-28T23:23:54.262Z,3.83
2019-01-28T23:26:25.427Z,3.90
2019-01-28T23:28:54.402Z,4.08
2019-01-28T23:31:23.415Z,4.00
2019-01-28T23:33:52.330Z,4.42
2019-01-28T23:36:21.358Z,4.17
2019-01-28T23:38:50.365Z,4.15
2019-01-28T23:41:20.903Z,4.20
2019-01-28T23:43:50.078Z,3.95
2019-01-28T23:46:19.505Z,4.75
2019-01-28T23:48:48.371Z,4.15
2019-01-28T23:51:17.281Z,4.22
2019-01-28T23:53:47.209Z,4.10
2019-01-28T23:56:16.309Z,3.70
2019-01-28T23:58:45.249Z,3.70
